Capitol Logistics 2612

Operating for CKS



KMIA
Miami International Airport
Miami, Florida
PANC
Ted Stevens Anchorage International Airport
Anchorage, Alaska

Activity Log

Date Flight Route Aircraft Duration
12/19/2021 CPX2612 DHP CTY GEF MSL FAM IRK FSD BIS YMJ YXE YEG YQU YXJ YYE YQH YXY GKN TED B744 8h 50m
10/12/2021 CPX2612 VACAY1 STYMY Q77 WIGVO VXV J99 IIU J89 OBK DLH 50N095W YQD PETMA TULAG 60N120W 61N130W ALUSO NCA20 TIEKL B744 7h 42m
09/23/2021 CPX2612 SMELZ VUZ STL ABR MOT VLN WAINN NUBEG LEPET GOROV REMBY B744 8h 26m
01/03/2020 CPX250 WINCO2 WINCO CHRRI SMELZ Q116 JAWJA MGM IGB UJM OSW HLC MBW DBS PDT J20 SEA J523 TOU J501 YAZ Q801 YZP TR19 FRIED J804R EEDEN J804R MDO WITTI4 B744 8h 22m
12/21/2019 CPX250 WINCO2 WINCO CHRRI SMELZ Q116 JAWJA MGM IGB UJM OSW HLC MBW DBS PDT J20 SEA J523 TOU J501 YAZ Q801 YZP TR19 FRIED J804R EEDEN J804R MDO WITTI4 B744 9h 59m
11/25/2019 CPX250 N0479F380 BSTER2 HEDLY J53 CFVPP/N0482F400 J53 ORL/N0479F390 J53 MATEO/N0483F410 J53 CRG/N0482F400 ODF VXV J99 IIU J89 OBK J101 BAE J89 DLH J538 VBI LIDON NCA20 TIEKL WITTI B744 8h 08m
10/30/2019 CPX250 WINCO2 WINCO CHRRI SMELZ Q116 JAWJA MGM IGB UJM OSW HLC MBW DBS PDT J20 SEA J523 TOU J501 YAZ Q801 YZP TR19 FRIED J804R EEDEN J804R MDO WITTI4 B744 8h 16m
10/28/2019 CPX250 WINCO2 WINCO CHRRI SMELZ Q116 JAWJA MGM IGB UJM OSW HLC MBW DBS PDT J20 SEA J523 TOU J501 YAZ Q801 YZP TR19 FRIED J804R EEDEN J804R MDO WITTI4 B744 8h 39m
06/05/2019 CPX250 HITAG2 HEDLY J53 PHK LAL CTY J151 FAM IRK J45 ABR MOT J483 VLN J475 YWV NCA11 REMBY PTERS3 B744 7h 58m
05/02/2019 CPX250 BSTER2 WINCO CHRRI J43 PIE Q104 HEVVN J41 SZW VUZ J151 FAM STJ ONL J151 BIL J13 GTF J569 NAAPP J569 YYD SSR J541 YAK J501 JOH YESKA6 B744 7h 37m

Route Details

Aircraft Information
Group: Large Widebodies
Types: B744,MD11
Route Data
Demand: L
Distance: 3479nm
Duration: 8h 33m
Recm'd Route: WINCO2 WINCO CHRRI SMELZ Q116 VUZ J151 FAM IRK ABR MOT J483 YXE Q971 NUBEG YPE J537 YYE J515 YXY NCA13 TMSON WITTI4
Origin Wx: KMIA 252153Z 10008KT 10SM SCT030 SCT100 BKN250 22/15 A3000 RMK AO2 SLP160 T02220150 $
Dest. Wx: PANC 252155Z 20005KT 3SM R07R/2600VP6000FT -SN BR BKN030 OVC047 00/M03 A3005 RMK AO2 P0000 T00001033
Notes: 2X PER WEEK

Financial History
Total Freight: 687,100lbs
Average Load: 68,710lbs/flt
Fuel Used: 1,514,619lbs
Avg. Fuel Used: 151,462lbs/flt
Fuel Expense: $1,374,201
Avg. Fuel Expense: $137,420
Avg. Fuel Cost: $0.96/lbs
Total Gross Income: $1,552,443
Pilot Pay: $2,180
Total Expenses: $181,830
Total Revenue: $-19,991
Average Revenue: $155,244.29